Sumise Maru No.20 — JG5478 — position and weather

sailwx.info

Track history (hours):
 
Tides and Currents Weather Stations Pressure Air Temp Water Temp Dewpoint Dewpoint Depression Visibility Wind Speed Wind Dir Waves Ship Positions

Sumise Maru No.20

Last reported at 2017-Sep-21 01:44 UTC. Time now 2017-Sep-21 03:10 UTC.
Position N 35°40' E 140°00'.

Length 117 m; draft 6 m.

Type: Cargo ship. MMSI: 431100268.

Date/timePositionNaut miles runAvg speedWind from/ knotsBaromVisibWave heightAir tempDewpointWater temp
2017-Sep-21 01:44N 35°40' E 140°00'0 1.0
2017-Sep-21 01:29N 35°40' E 139°60'7 8.2
2017-Sep-21 00:40N 35°34' E 139°57'411.6
2017-Sep-21 00:21N 35°31' E 139°54'411.6
2017-Sep-21 00:00N 35°28' E 139°50'611.6
2017-Sep-20 23:30N 35°23' E 139°46'510.6
2017-Sep-20 23:00N 35°18' E 139°44'510.7
2017-Sep-20 22:30N 35°13' E 139°47'611.8
2017-Sep-20 22:00N 35°08' E 139°46'612.5
2017-Sep-20 21:30N 35°02' E 139°42'612.4
2017-Sep-20 21:00N 34°58' E 139°36'231 7.1
2017-Sep-19 12:21N 34°09' E 135°02'411.5
2017-Sep-19 12:00N 34°12' E 135°04'4 7.4
2017-Sep-19 11:30N 34°14' E 135°08'0 0.1
2017-Sep-19 11:00N 34°14' E 135°08'0 0.0
2017-Sep-19 10:30N 34°14' E 135°08'0 0.0
2017-Sep-19 10:00N 34°14' E 135°08'0 0.0
2017-Sep-19 09:30N 34°14' E 135°08'0 0.0
2017-Sep-19 09:00N 34°14' E 135°08'0 0.0
2017-Sep-19 07:54N 34°14' E 135°08'0 0.0
2017-Sep-19 07:30N 34°14' E 135°08'0 0.0
2017-Sep-19 07:00N 34°14' E 135°08'0 0.0
2017-Sep-19 06:30N 34°14' E 135°08'0 0.0
2017-Sep-19 06:00N 34°14' E 135°08'0 0.0
2017-Sep-19 05:30N 34°14' E 135°08'0 0.0
2017-Sep-19 05:00N 34°14' E 135°08'0 0.0
2017-Sep-19 04:30N 34°14' E 135°08'0 0.0
2017-Sep-19 04:00N 34°14' E 135°08'0 0.0
2017-Sep-19 03:30N 34°14' E 135°08'0 0.0
2017-Sep-19 03:00N 34°14' E 135°08'0 0.0
2017-Sep-19 02:30N 34°14' E 135°08'0 0.1
2017-Sep-19 02:00N 34°14' E 135°08'0 0.1
2017-Sep-19 01:30N 34°14' E 135°08'0 0.0
2017-Sep-19 01:00N 34°14' E 135°08'0 0.0
2017-Sep-19 00:30N 34°14' E 135°08'0 0.1
2017-Sep-18 23:48N 34°14' E 135°08'0 0.2
2017-Sep-18 23:30N 34°14' E 135°08'0 0.0
2017-Sep-18 22:57N 34°14' E 135°08'0 0.0
2017-Sep-18 22:30N 34°14' E 135°08'0 0.0
2017-Sep-18 22:00N 34°14' E 135°08'0 0.0
2017-Sep-18 21:30N 34°14' E 135°08'0 0.0
2017-Sep-18 20:54N 34°14' E 135°08'0 0.0
2017-Sep-18 20:30N 34°14' E 135°08'0 0.0
2017-Sep-18 20:00N 34°14' E 135°08'0 0.0
2017-Sep-18 19:30N 34°14' E 135°08'0 0.0
2017-Sep-18 19:00N 34°14' E 135°08'0 0.0
2017-Sep-18 18:30N 34°14' E 135°08'0 0.0
2017-Sep-18 18:00N 34°14' E 135°08'0 0.0
2017-Sep-18 17:30N 34°14' E 135°08'0 0.0
2017-Sep-18 17:00N 34°14' E 135°08'2 3.1
2017-Sep-18 16:30N 34°14' E 135°06'4 7.8
2017-Sep-18 16:00N 34°11' E 135°03'1 1.8
2017-Sep-18 15:30N 34°11' E 135°03'2 3.9
2017-Sep-18 15:00N 34°09' E 135°01'  
2017-Sep-14 22:20N 34°58' E 139°30'411.4
2017-Sep-14 21:57N 35°01' E 139°34'613.0
2017-Sep-14 21:30N 35°05' E 139°40'613.0
2017-Sep-14 21:00N 35°10' E 139°45'713.1
2017-Sep-14 20:30N 35°16' E 139°46'612.8
2017-Sep-14 20:00N 35°22' E 139°42'612.2
2017-Sep-14 19:30N 35°27' E 139°47'612.8
2017-Sep-14 19:00N 35°30' E 139°54'5 0.4
2017-Sep-14 08:06N 35°28' E 139°59'0 1.5
2017-Sep-14 07:59N 35°28' E 139°59'3 5.9
2017-Sep-14 07:30N 35°30' E 139°56'611.7
2017-Sep-14 07:00N 35°27' E 139°50'612.1
2017-Sep-14 06:30N 35°22' E 139°45'511.0
2017-Sep-14 06:00N 35°17' E 139°46'611.9
2017-Sep-14 05:30N 35°11' E 139°46'612.5
2017-Sep-14 05:00N 35°05' E 139°43'612.3
2017-Sep-14 04:30N 35°00' E 139°38'713.1
2017-Sep-14 04:00N 34°56' E 139°32'  
Track history (hours):
 
Tides and Currents Weather Stations Pressure Air Temp Water Temp Dewpoint Dewpoint Depression Visibility Wind Speed Wind Dir Waves Ship Positions

Sumise Maru No.20

Last reported at 2017-Sep-21 01:44 UTC. Time now 2017-Sep-21 03:10 UTC.
Position N 35°40' E 140°00'.

Length 117 m; draft 6 m.

Type: Cargo ship. MMSI: 431100268.

Date/timePositionNaut miles runAvg speedWind from/ knotsBaromVisibWave heightAir tempDewpointWater temp
2017-Sep-21 01:44N 35°40' E 140°00'0 1.0
2017-Sep-21 01:29N 35°40' E 139°60'7 8.2
2017-Sep-21 00:40N 35°34' E 139°57'411.6
2017-Sep-21 00:21N 35°31' E 139°54'411.6
2017-Sep-21 00:00N 35°28' E 139°50'611.6
2017-Sep-20 23:30N 35°23' E 139°46'510.6
2017-Sep-20 23:00N 35°18' E 139°44'510.7
2017-Sep-20 22:30N 35°13' E 139°47'611.8
2017-Sep-20 22:00N 35°08' E 139°46'612.5
2017-Sep-20 21:30N 35°02' E 139°42'612.4
2017-Sep-20 21:00N 34°58' E 139°36'231 7.1
2017-Sep-19 12:21N 34°09' E 135°02'411.5
2017-Sep-19 12:00N 34°12' E 135°04'4 7.4
2017-Sep-19 11:30N 34°14' E 135°08'0 0.1
2017-Sep-19 11:00N 34°14' E 135°08'0 0.0
2017-Sep-19 10:30N 34°14' E 135°08'0 0.0
2017-Sep-19 10:00N 34°14' E 135°08'0 0.0
2017-Sep-19 09:30N 34°14' E 135°08'0 0.0
2017-Sep-19 09:00N 34°14' E 135°08'0 0.0
2017-Sep-19 07:54N 34°14' E 135°08'0 0.0
2017-Sep-19 07:30N 34°14' E 135°08'0 0.0
2017-Sep-19 07:00N 34°14' E 135°08'0 0.0
2017-Sep-19 06:30N 34°14' E 135°08'0 0.0
2017-Sep-19 06:00N 34°14' E 135°08'0 0.0
2017-Sep-19 05:30N 34°14' E 135°08'0 0.0
2017-Sep-19 05:00N 34°14' E 135°08'0 0.0
2017-Sep-19 04:30N 34°14' E 135°08'0 0.0
2017-Sep-19 04:00N 34°14' E 135°08'0 0.0
2017-Sep-19 03:30N 34°14' E 135°08'0 0.0
2017-Sep-19 03:00N 34°14' E 135°08'0 0.0
2017-Sep-19 02:30N 34°14' E 135°08'0 0.1
2017-Sep-19 02:00N 34°14' E 135°08'0 0.1
2017-Sep-19 01:30N 34°14' E 135°08'0 0.0
2017-Sep-19 01:00N 34°14' E 135°08'0 0.0
2017-Sep-19 00:30N 34°14' E 135°08'0 0.1
2017-Sep-18 23:48N 34°14' E 135°08'0 0.2
2017-Sep-18 23:30N 34°14' E 135°08'0 0.0
2017-Sep-18 22:57N 34°14' E 135°08'0 0.0
2017-Sep-18 22:30N 34°14' E 135°08'0 0.0
2017-Sep-18 22:00N 34°14' E 135°08'0 0.0
2017-Sep-18 21:30N 34°14' E 135°08'0 0.0
2017-Sep-18 20:54N 34°14' E 135°08'0 0.0
2017-Sep-18 20:30N 34°14' E 135°08'0 0.0
2017-Sep-18 20:00N 34°14' E 135°08'0 0.0
2017-Sep-18 19:30N 34°14' E 135°08'0 0.0
2017-Sep-18 19:00N 34°14' E 135°08'0 0.0
2017-Sep-18 18:30N 34°14' E 135°08'0 0.0
2017-Sep-18 18:00N 34°14' E 135°08'0 0.0
2017-Sep-18 17:30N 34°14' E 135°08'0 0.0
2017-Sep-18 17:00N 34°14' E 135°08'2 3.1
2017-Sep-18 16:30N 34°14' E 135°06'4 7.8
2017-Sep-18 16:00N 34°11' E 135°03'1 1.8
2017-Sep-18 15:30N 34°11' E 135°03'2 3.9
2017-Sep-18 15:00N 34°09' E 135°01'  
2017-Sep-14 22:20N 34°58' E 139°30'411.4
2017-Sep-14 21:57N 35°01' E 139°34'613.0
2017-Sep-14 21:30N 35°05' E 139°40'613.0
2017-Sep-14 21:00N 35°10' E 139°45'713.1
2017-Sep-14 20:30N 35°16' E 139°46'612.8
2017-Sep-14 20:00N 35°22' E 139°42'612.2
2017-Sep-14 19:30N 35°27' E 139°47'612.8
2017-Sep-14 19:00N 35°30' E 139°54'5 0.4
2017-Sep-14 08:06N 35°28' E 139°59'0 1.5
2017-Sep-14 07:59N 35°28' E 139°59'3 5.9
2017-Sep-14 07:30N 35°30' E 139°56'611.7
2017-Sep-14 07:00N 35°27' E 139°50'612.1
2017-Sep-14 06:30N 35°22' E 139°45'511.0
2017-Sep-14 06:00N 35°17' E 139°46'611.9
2017-Sep-14 05:30N 35°11' E 139°46'612.5
2017-Sep-14 05:00N 35°05' E 139°43'612.3
2017-Sep-14 04:30N 35°00' E 139°38'713.1
2017-Sep-14 04:00N 34°56' E 139°32'  

Dump ship's entire track history